sensor_id;sensor_type;location;lat;lon;timestamp;P1;durP1;ratioP1;P2;durP2;ratioP2
43841;SDS011;29495;49.970;20.842;2022-07-29T00:01:23;3.88;;;3.10;;
43841;SDS011;29495;49.970;20.842;2022-07-29T00:03:49;4.28;;;2.72;;
43841;SDS011;29495;49.970;20.842;2022-07-29T00:06:15;2.92;;;2.45;;
43841;SDS011;29495;49.970;20.842;2022-07-29T00:08:41;3.88;;;2.70;;
43841;SDS011;29495;49.970;20.842;2022-07-29T00:11:07;3.70;;;2.75;;
43841;SDS011;29495;49.970;20.842;2022-07-29T00:13:34;3.25;;;2.78;;
43841;SDS011;29495;49.970;20.842;2022-07-29T00:16:00;4.93;;;2.83;;
43841;SDS011;29495;49.970;20.842;2022-07-29T00:18:26;5.07;;;2.83;;
43841;SDS011;29495;49.970;20.842;2022-07-29T00:20:51;4.13;;;2.95;;
43841;SDS011;29495;49.970;20.842;2022-07-29T00:23:17;4.78;;;3.25;;
43841;SDS011;29495;49.970;20.842;2022-07-29T00:25:43;4.28;;;3.00;;
43841;SDS011;29495;49.970;20.842;2022-07-29T00:28:09;4.40;;;3.30;;
43841;SDS011;29495;49.970;20.842;2022-07-29T00:30:35;3.35;;;2.92;;
43841;SDS011;29495;49.970;20.842;2022-07-29T00:33:01;5.10;;;3.10;;
43841;SDS011;29495;49.970;20.842;2022-07-29T00:35:27;3.47;;;3.03;;
43841;SDS011;29495;49.970;20.842;2022-07-29T00:38:09;4.00;;;3.22;;
43841;SDS011;29495;49.970;20.842;2022-07-29T00:40:36;7.00;;;3.75;;
43841;SDS011;29495;49.970;20.842;2022-07-29T00:43:02;3.70;;;2.80;;
43841;SDS011;29495;49.970;20.842;2022-07-29T00:45:28;3.50;;;3.08;;
43841;SDS011;29495;49.970;20.842;2022-07-29T00:47:55;5.10;;;2.97;;
43841;SDS011;29495;49.970;20.842;2022-07-29T00:50:21;3.78;;;3.38;;
43841;SDS011;29495;49.970;20.842;2022-07-29T00:52:48;3.63;;;2.97;;
43841;SDS011;29495;49.970;20.842;2022-07-29T00:55:15;4.25;;;3.10;;
43841;SDS011;29495;49.970;20.842;2022-07-29T00:57:42;3.38;;;2.80;;
43841;SDS011;29495;49.970;20.842;2022-07-29T01:00:11;3.30;;;3.00;;
43841;SDS011;29495;49.970;20.842;2022-07-29T01:02:40;2.85;;;2.47;;
43841;SDS011;29495;49.970;20.842;2022-07-29T01:05:06;2.83;;;2.30;;
43841;SDS011;29495;49.970;20.842;2022-07-29T01:07:34;3.22;;;2.40;;
43841;SDS011;29495;49.970;20.842;2022-07-29T01:10:03;3.33;;;2.70;;
43841;SDS011;29495;49.970;20.842;2022-07-29T01:12:31;2.97;;;2.33;;
43841;SDS011;29495;49.970;20.842;2022-07-29T01:15:00;3.60;;;2.70;;
43841;SDS011;29495;49.970;20.842;2022-07-29T01:23:08;3.38;;;2.95;;
43841;SDS011;29495;49.970;20.842;2022-07-29T01:32:14;3.17;;;2.50;;
43841;SDS011;29495;49.970;20.842;2022-07-29T01:37:15;2.55;;;2.25;;
43841;SDS011;29495;49.970;20.842;2022-07-29T01:39:56;3.03;;;2.40;;
43841;SDS011;29495;49.970;20.842;2022-07-29T01:42:36;4.40;;;2.78;;
43841;SDS011;29495;49.970;20.842;2022-07-29T01:48:10;2.67;;;2.03;;
43841;SDS011;29495;49.970;20.842;2022-07-29T01:50:39;3.00;;;2.40;;
43841;SDS011;29495;49.970;20.842;2022-07-29T01:53:11;2.92;;;2.63;;
43841;SDS011;29495;49.970;20.842;2022-07-29T01:55:41;7.82;;;2.72;;
43841;SDS011;29495;49.970;20.842;2022-07-29T01:58:10;2.28;;;1.95;;
43841;SDS011;29495;49.970;20.842;2022-07-29T02:00:38;3.00;;;2.10;;
43841;SDS011;29495;49.970;20.842;2022-07-29T02:03:07;2.70;;;2.40;;
43841;SDS011;29495;49.970;20.842;2022-07-29T02:05:37;3.10;;;2.53;;
43841;SDS011;29495;49.970;20.842;2022-07-29T02:08:06;3.40;;;2.33;;
43841;SDS011;29495;49.970;20.842;2022-07-29T02:10:33;3.88;;;2.20;;
43841;SDS011;29495;49.970;20.842;2022-07-29T02:13:00;2.80;;;2.20;;
43841;SDS011;29495;49.970;20.842;2022-07-29T02:15:29;2.50;;;2.00;;
43841;SDS011;29495;49.970;20.842;2022-07-29T02:18:07;2.25;;;2.00;;
43841;SDS011;29495;49.970;20.842;2022-07-29T02:20:36;3.15;;;2.53;;
43841;SDS011;29495;49.970;20.842;2022-07-29T02:23:04;3.77;;;2.43;;
43841;SDS011;29495;49.970;20.842;2022-07-29T02:25:31;2.92;;;2.60;;
43841;SDS011;29495;49.970;20.842;2022-07-29T02:27:57;2.15;;;1.90;;
43841;SDS011;29495;49.970;20.842;2022-07-29T02:30:26;3.20;;;2.13;;
43841;SDS011;29495;49.970;20.842;2022-07-29T02:32:54;2.70;;;1.98;;
43841;SDS011;29495;49.970;20.842;2022-07-29T02:35:21;2.90;;;2.30;;
43841;SDS011;29495;49.970;20.842;2022-07-29T02:37:47;2.65;;;2.13;;
43841;SDS011;29495;49.970;20.842;2022-07-29T02:40:34;2.05;;;1.80;;
43841;SDS011;29495;49.970;20.842;2022-07-29T02:43:03;2.90;;;2.00;;
43841;SDS011;29495;49.970;20.842;2022-07-29T02:45:31;4.18;;;2.42;;
43841;SDS011;29495;49.970;20.842;2022-07-29T02:47:58;3.70;;;2.22;;
43841;SDS011;29495;49.970;20.842;2022-07-29T02:50:31;8.00;;;2.08;;
43841;SDS011;29495;49.970;20.842;2022-07-29T02:55:40;2.35;;;1.90;;
43841;SDS011;29495;49.970;20.842;2022-07-29T03:00:55;2.55;;;2.35;;
43841;SDS011;29495;49.970;20.842;2022-07-29T03:03:37;2.22;;;1.83;;
43841;SDS011;29495;49.970;20.842;2022-07-29T03:06:04;3.88;;;2.53;;
43841;SDS011;29495;49.970;20.842;2022-07-29T03:08:32;3.72;;;2.00;;
43841;SDS011;29495;49.970;20.842;2022-07-29T03:11:00;2.10;;;1.90;;
43841;SDS011;29495;49.970;20.842;2022-07-29T03:13:27;2.90;;;2.08;;
43841;SDS011;29495;49.970;20.842;2022-07-29T03:15:54;3.50;;;2.10;;
43841;SDS011;29495;49.970;20.842;2022-07-29T03:18:21;2.67;;;1.92;;
43841;SDS011;29495;49.970;20.842;2022-07-29T03:20:47;3.15;;;2.15;;
43841;SDS011;29495;49.970;20.842;2022-07-29T03:23:17;2.97;;;2.30;;
43841;SDS011;29495;49.970;20.842;2022-07-29T03:25:45;2.75;;;2.05;;
43841;SDS011;29495;49.970;20.842;2022-07-29T03:28:11;2.95;;;2.00;;
43841;SDS011;29495;49.970;20.842;2022-07-29T03:30:37;2.30;;;2.03;;
43841;SDS011;29495;49.970;20.842;2022-07-29T03:33:03;2.13;;;1.90;;
43841;SDS011;29495;49.970;20.842;2022-07-29T03:35:29;3.13;;;1.70;;
43841;SDS011;29495;49.970;20.842;2022-07-29T03:37:57;2.30;;;2.10;;
43841;SDS011;29495;49.970;20.842;2022-07-29T03:40:46;2.83;;;1.80;;
43841;SDS011;29495;49.970;20.842;2022-07-29T03:43:16;2.35;;;1.85;;
43841;SDS011;29495;49.970;20.842;2022-07-29T03:45:44;3.60;;;1.92;;
43841;SDS011;29495;49.970;20.842;2022-07-29T03:48:15;2.45;;;2.03;;
43841;SDS011;29495;49.970;20.842;2022-07-29T03:50:43;2.38;;;1.88;;
43841;SDS011;29495;49.970;20.842;2022-07-29T03:53:10;2.00;;;1.80;;
43841;SDS011;29495;49.970;20.842;2022-07-29T03:55:37;3.55;;;2.25;;
43841;SDS011;29495;49.970;20.842;2022-07-29T03:58:08;2.03;;;1.70;;
43841;SDS011;29495;49.970;20.842;2022-07-29T04:00:34;1.83;;;1.60;;
43841;SDS011;29495;49.970;20.842;2022-07-29T04:03:03;2.33;;;1.90;;
43841;SDS011;29495;49.970;20.842;2022-07-29T04:05:30;3.75;;;2.10;;
43841;SDS011;29495;49.970;20.842;2022-07-29T04:07:56;2.83;;;1.90;;
43841;SDS011;29495;49.970;20.842;2022-07-29T04:10:22;2.50;;;2.10;;
43841;SDS011;29495;49.970;20.842;2022-07-29T04:12:48;1.95;;;1.60;;
43841;SDS011;29495;49.970;20.842;2022-07-29T04:15:14;2.00;;;1.70;;
43841;SDS011;29495;49.970;20.842;2022-07-29T04:17:40;1.88;;;1.63;;
43841;SDS011;29495;49.970;20.842;2022-07-29T04:20:07;2.05;;;1.65;;
43841;SDS011;29495;49.970;20.842;2022-07-29T04:22:33;3.25;;;1.80;;
43841;SDS011;29495;49.970;20.842;2022-07-29T04:24:59;2.67;;;1.63;;
43841;SDS011;29495;49.970;20.842;2022-07-29T04:27:25;3.40;;;1.90;;
43841;SDS011;29495;49.970;20.842;2022-07-29T04:29:51;2.70;;;1.98;;
43841;SDS011;29495;49.970;20.842;2022-07-29T04:32:17;2.80;;;2.40;;
43841;SDS011;29495;49.970;20.842;2022-07-29T04:34:43;2.45;;;1.85;;
43841;SDS011;29495;49.970;20.842;2022-07-29T04:37:10;3.50;;;2.53;;
43841;SDS011;29495;49.970;20.842;2022-07-29T04:39:36;2.95;;;2.38;;
43841;SDS011;29495;49.970;20.842;2022-07-29T04:42:02;2.35;;;1.98;;
43841;SDS011;29495;49.970;20.842;2022-07-29T04:44:28;2.55;;;1.80;;
43841;SDS011;29495;49.970;20.842;2022-07-29T04:46:54;2.72;;;2.15;;
43841;SDS011;29495;49.970;20.842;2022-07-29T04:49:21;2.03;;;1.83;;
43841;SDS011;29495;49.970;20.842;2022-07-29T04:51:47;2.55;;;1.80;;
43841;SDS011;29495;49.970;20.842;2022-07-29T04:54:12;3.00;;;2.20;;
43841;SDS011;29495;49.970;20.842;2022-07-29T04:56:38;2.25;;;1.80;;
43841;SDS011;29495;49.970;20.842;2022-07-29T04:59:04;3.03;;;1.70;;
43841;SDS011;29495;49.970;20.842;2022-07-29T05:01:30;2.38;;;1.75;;
43841;SDS011;29495;49.970;20.842;2022-07-29T05:03:56;3.50;;;2.20;;
43841;SDS011;29495;49.970;20.842;2022-07-29T05:06:22;2.70;;;1.75;;
43841;SDS011;29495;49.970;20.842;2022-07-29T05:08:48;3.67;;;2.35;;
43841;SDS011;29495;49.970;20.842;2022-07-29T05:11:15;3.55;;;1.85;;
43841;SDS011;29495;49.970;20.842;2022-07-29T05:13:41;3.17;;;2.35;;
43841;SDS011;29495;49.970;20.842;2022-07-29T05:16:08;3.55;;;2.35;;
43841;SDS011;29495;49.970;20.842;2022-07-29T05:18:34;4.88;;;2.78;;
43841;SDS011;29495;49.970;20.842;2022-07-29T05:21:00;5.45;;;2.60;;
43841;SDS011;29495;49.970;20.842;2022-07-29T05:23:26;2.72;;;2.10;;
43841;SDS011;29495;49.970;20.842;2022-07-29T05:25:52;3.15;;;2.33;;
43841;SDS011;29495;49.970;20.842;2022-07-29T05:28:18;2.25;;;1.90;;
43841;SDS011;29495;49.970;20.842;2022-07-29T05:30:44;2.75;;;1.73;;
43841;SDS011;29495;49.970;20.842;2022-07-29T05:33:10;3.85;;;1.83;;
43841;SDS011;29495;49.970;20.842;2022-07-29T05:35:36;3.60;;;1.83;;
43841;SDS011;29495;49.970;20.842;2022-07-29T05:38:02;4.45;;;1.70;;
43841;SDS011;29495;49.970;20.842;2022-07-29T05:40:29;2.72;;;1.60;;
43841;SDS011;29495;49.970;20.842;2022-07-29T05:42:55;3.40;;;1.40;;
43841;SDS011;29495;49.970;20.842;2022-07-29T05:45:21;1.70;;;1.50;;
43841;SDS011;29495;49.970;20.842;2022-07-29T05:47:48;3.63;;;1.67;;
43841;SDS011;29495;49.970;20.842;2022-07-29T05:50:14;2.00;;;1.42;;
43841;SDS011;29495;49.970;20.842;2022-07-29T05:52:40;1.85;;;1.10;;
43841;SDS011;29495;49.970;20.842;2022-07-29T05:55:06;1.73;;;1.30;;
43841;SDS011;29495;49.970;20.842;2022-07-29T05:57:32;3.05;;;1.48;;
43841;SDS011;29495;49.970;20.842;2022-07-29T05:59:58;3.45;;;1.65;;
43841;SDS011;29495;49.970;20.842;2022-07-29T06:02:24;2.90;;;1.63;;
43841;SDS011;29495;49.970;20.842;2022-07-29T06:04:50;1.80;;;1.40;;
43841;SDS011;29495;49.970;20.842;2022-07-29T06:07:16;2.00;;;1.30;;
43841;SDS011;29495;49.970;20.842;2022-07-29T06:09:43;2.50;;;1.20;;
43841;SDS011;29495;49.970;20.842;2022-07-29T06:12:09;1.83;;;1.25;;
43841;SDS011;29495;49.970;20.842;2022-07-29T06:14:35;1.52;;;1.00;;
43841;SDS011;29495;49.970;20.842;2022-07-29T06:17:01;1.98;;;1.60;;
43841;SDS011;29495;49.970;20.842;2022-07-29T06:19:27;1.70;;;1.23;;
43841;SDS011;29495;49.970;20.842;2022-07-29T06:21:53;2.17;;;1.02;;
43841;SDS011;29495;49.970;20.842;2022-07-29T06:24:19;3.17;;;1.25;;
43841;SDS011;29495;49.970;20.842;2022-07-29T06:26:45;1.73;;;1.40;;
43841;SDS011;29495;49.970;20.842;2022-07-29T06:29:11;1.55;;;1.20;;
43841;SDS011;29495;49.970;20.842;2022-07-29T06:31:39;1.23;;;1.13;;
43841;SDS011;29495;49.970;20.842;2022-07-29T06:34:06;3.92;;;1.40;;
43841;SDS011;29495;49.970;20.842;2022-07-29T06:36:35;1.55;;;1.00;;
43841;SDS011;29495;49.970;20.842;2022-07-29T06:39:06;1.75;;;1.15;;
43841;SDS011;29495;49.970;20.842;2022-07-29T06:41:32;1.30;;;0.80;;
43841;SDS011;29495;49.970;20.842;2022-07-29T06:44:05;2.03;;;1.08;;
43841;SDS011;29495;49.970;20.842;2022-07-29T06:46:32;1.20;;;0.90;;
43841;SDS011;29495;49.970;20.842;2022-07-29T06:48:57;3.67;;;1.10;;
43841;SDS011;29495;49.970;20.842;2022-07-29T06:51:23;2.35;;;1.35;;
43841;SDS011;29495;49.970;20.842;2022-07-29T06:53:51;1.48;;;1.30;;
43841;SDS011;29495;49.970;20.842;2022-07-29T06:56:17;1.92;;;1.23;;
43841;SDS011;29495;49.970;20.842;2022-07-29T06:58:43;1.40;;;1.27;;
43841;SDS011;29495;49.970;20.842;2022-07-29T07:01:09;1.67;;;1.20;;
43841;SDS011;29495;49.970;20.842;2022-07-29T07:03:35;2.00;;;1.30;;
43841;SDS011;29495;49.970;20.842;2022-07-29T07:06:01;0.73;;;0.70;;
43841;SDS011;29495;49.970;20.842;2022-07-29T07:08:27;2.05;;;1.20;;
43841;SDS011;29495;49.970;20.842;2022-07-29T07:10:53;3.45;;;0.90;;
43841;SDS011;29495;49.970;20.842;2022-07-29T07:13:20;0.95;;;0.80;;
43841;SDS011;29495;49.970;20.842;2022-07-29T07:15:46;1.48;;;1.20;;
43841;SDS011;29495;49.970;20.842;2022-07-29T07:18:16;1.52;;;1.05;;
43841;SDS011;29495;49.970;20.842;2022-07-29T07:20:42;3.55;;;1.40;;
43841;SDS011;29495;49.970;20.842;2022-07-29T07:23:08;1.98;;;0.98;;
43841;SDS011;29495;49.970;20.842;2022-07-29T07:25:34;2.10;;;1.60;;
43841;SDS011;29495;49.970;20.842;2022-07-29T07:28:00;2.00;;;1.38;;
43841;SDS011;29495;49.970;20.842;2022-07-29T07:30:26;2.08;;;1.35;;
43841;SDS011;29495;49.970;20.842;2022-07-29T07:32:53;2.13;;;1.17;;
43841;SDS011;29495;49.970;20.842;2022-07-29T07:35:19;1.35;;;1.10;;
43841;SDS011;29495;49.970;20.842;2022-07-29T07:37:45;3.78;;;1.45;;
43841;SDS011;29495;49.970;20.842;2022-07-29T07:40:11;1.88;;;1.30;;
43841;SDS011;29495;49.970;20.842;2022-07-29T07:42:39;2.08;;;1.30;;
43841;SDS011;29495;49.970;20.842;2022-07-29T07:45:06;1.60;;;1.30;;
43841;SDS011;29495;49.970;20.842;2022-07-29T07:47:35;1.85;;;1.40;;
43841;SDS011;29495;49.970;20.842;2022-07-29T07:50:02;2.63;;;1.35;;
43841;SDS011;29495;49.970;20.842;2022-07-29T07:52:29;2.53;;;1.65;;
43841;SDS011;29495;49.970;20.842;2022-07-29T07:54:55;1.88;;;1.25;;
43841;SDS011;29495;49.970;20.842;2022-07-29T07:57:21;2.22;;;1.50;;
43841;SDS011;29495;49.970;20.842;2022-07-29T07:59:47;3.20;;;1.80;;
43841;SDS011;29495;49.970;20.842;2022-07-29T08:02:13;2.42;;;1.88;;
43841;SDS011;29495;49.970;20.842;2022-07-29T08:04:39;1.75;;;1.40;;
43841;SDS011;29495;49.970;20.842;2022-07-29T08:07:08;2.20;;;1.30;;
43841;SDS011;29495;49.970;20.842;2022-07-29T08:09:34;1.80;;;0.90;;
43841;SDS011;29495;49.970;20.842;2022-07-29T08:12:01;2.22;;;1.50;;
43841;SDS011;29495;49.970;20.842;2022-07-29T08:14:29;1.42;;;1.17;;
43841;SDS011;29495;49.970;20.842;2022-07-29T08:16:56;4.10;;;1.40;;
43841;SDS011;29495;49.970;20.842;2022-07-29T08:19:22;1.10;;;1.00;;
43841;SDS011;29495;49.970;20.842;2022-07-29T08:21:48;2.00;;;1.40;;
43841;SDS011;29495;49.970;20.842;2022-07-29T08:24:14;1.45;;;1.20;;
43841;SDS011;29495;49.970;20.842;2022-07-29T08:26:58;1.52;;;1.40;;
43841;SDS011;29495;49.970;20.842;2022-07-29T08:29:24;1.83;;;1.25;;
43841;SDS011;29495;49.970;20.842;2022-07-29T08:31:50;1.85;;;1.40;;
43841;SDS011;29495;49.970;20.842;2022-07-29T08:34:16;2.42;;;1.10;;
43841;SDS011;29495;49.970;20.842;2022-07-29T08:36:42;1.15;;;1.05;;
43841;SDS011;29495;49.970;20.842;2022-07-29T08:39:08;1.27;;;1.17;;
43841;SDS011;29495;49.970;20.842;2022-07-29T08:41:34;3.00;;;1.40;;
43841;SDS011;29495;49.970;20.842;2022-07-29T08:44:00;2.67;;;1.20;;
43841;SDS011;29495;49.970;20.842;2022-07-29T08:46:26;2.08;;;1.27;;
43841;SDS011;29495;49.970;20.842;2022-07-29T08:48:52;3.25;;;1.60;;
43841;SDS011;29495;49.970;20.842;2022-07-29T08:51:20;2.67;;;1.33;;
43841;SDS011;29495;49.970;20.842;2022-07-29T08:53:48;1.88;;;1.42;;
43841;SDS011;29495;49.970;20.842;2022-07-29T08:56:15;2.17;;;1.25;;
43841;SDS011;29495;49.970;20.842;2022-07-29T08:58:43;2.92;;;1.08;;
43841;SDS011;29495;49.970;20.842;2022-07-29T09:01:10;1.87;;;1.33;;
43841;SDS011;29495;49.970;20.842;2022-07-29T09:03:39;3.30;;;1.60;;
43841;SDS011;29495;49.970;20.842;2022-07-29T09:06:05;2.78;;;1.42;;
43841;SDS011;29495;49.970;20.842;2022-07-29T09:08:32;2.35;;;1.50;;
43841;SDS011;29495;49.970;20.842;2022-07-29T09:11:00;2.58;;;1.80;;
43841;SDS011;29495;49.970;20.842;2022-07-29T09:13:26;2.03;;;1.50;;
43841;SDS011;29495;49.970;20.842;2022-07-29T09:15:52;3.33;;;1.30;;
43841;SDS011;29495;49.970;20.842;2022-07-29T09:18:38;2.25;;;1.65;;
43841;SDS011;29495;49.970;20.842;2022-07-29T09:21:06;1.30;;;1.20;;
43841;SDS011;29495;49.970;20.842;2022-07-29T09:24:12;2.43;;;1.50;;
43841;SDS011;29495;49.970;20.842;2022-07-29T09:26:42;3.50;;;1.52;;
43841;SDS011;29495;49.970;20.842;2022-07-29T09:31:41;2.15;;;1.42;;
43841;SDS011;29495;49.970;20.842;2022-07-29T09:34:09;1.40;;;1.30;;
43841;SDS011;29495;49.970;20.842;2022-07-29T09:36:43;2.65;;;1.58;;
43841;SDS011;29495;49.970;20.842;2022-07-29T09:39:11;1.60;;;1.30;;
43841;SDS011;29495;49.970;20.842;2022-07-29T09:41:48;5.20;;;1.63;;
43841;SDS011;29495;49.970;20.842;2022-07-29T09:44:18;2.00;;;1.17;;
43841;SDS011;29495;49.970;20.842;2022-07-29T09:46:58;1.10;;;0.95;;
43841;SDS011;29495;49.970;20.842;2022-07-29T09:49:33;4.80;;;1.80;;
43841;SDS011;29495;49.970;20.842;2022-07-29T09:52:01;1.75;;;1.27;;
43841;SDS011;29495;49.970;20.842;2022-07-29T09:54:30;2.10;;;1.80;;
43841;SDS011;29495;49.970;20.842;2022-07-29T09:57:02;2.42;;;1.70;;
43841;SDS011;29495;49.970;20.842;2022-07-29T09:59:30;1.67;;;1.55;;
43841;SDS011;29495;49.970;20.842;2022-07-29T10:01:56;7.00;;;1.13;;
43841;SDS011;29495;49.970;20.842;2022-07-29T10:04:22;3.17;;;1.48;;
43841;SDS011;29495;49.970;20.842;2022-07-29T10:07:01;1.77;;;1.67;;
43841;SDS011;29495;49.970;20.842;2022-07-29T10:09:30;1.55;;;1.45;;
43841;SDS011;29495;49.970;20.842;2022-07-29T10:14:35;1.70;;;1.40;;
43841;SDS011;29495;49.970;20.842;2022-07-29T10:17:02;1.50;;;1.40;;
43841;SDS011;29495;49.970;20.842;2022-07-29T10:19:30;3.70;;;1.50;;
43841;SDS011;29495;49.970;20.842;2022-07-29T10:21:58;1.57;;;1.40;;
43841;SDS011;29495;49.970;20.842;2022-07-29T10:24:26;3.40;;;2.10;;
43841;SDS011;29495;49.970;20.842;2022-07-29T10:26:53;1.58;;;1.20;;
43841;SDS011;29495;49.970;20.842;2022-07-29T10:29:24;3.78;;;1.50;;
43841;SDS011;29495;49.970;20.842;2022-07-29T10:44:01;3.90;;;1.83;;
43841;SDS011;29495;49.970;20.842;2022-07-29T10:46:38;3.15;;;1.50;;
43841;SDS011;29495;49.970;20.842;2022-07-29T10:51:50;1.67;;;1.35;;
43841;SDS011;29495;49.970;20.842;2022-07-29T10:54:18;2.80;;;1.75;;
43841;SDS011;29495;49.970;20.842;2022-07-29T10:59:47;2.50;;;1.90;;
43841;SDS011;29495;49.970;20.842;2022-07-29T11:05:02;2.75;;;1.48;;
43841;SDS011;29495;49.970;20.842;2022-07-29T11:07:29;3.80;;;1.90;;
43841;SDS011;29495;49.970;20.842;2022-07-29T11:23:01;1.25;;;1.13;;
43841;SDS011;29495;49.970;20.842;2022-07-29T11:25:42;3.55;;;1.92;;
43841;SDS011;29495;49.970;20.842;2022-07-29T11:28:10;2.13;;;1.10;;
43841;SDS011;29495;49.970;20.842;2022-07-29T11:30:51;1.80;;;1.30;;
43841;SDS011;29495;49.970;20.842;2022-07-29T11:33:29;3.53;;;1.70;;
43841;SDS011;29495;49.970;20.842;2022-07-29T11:36:14;2.85;;;1.80;;
43841;SDS011;29495;49.970;20.842;2022-07-29T11:38:41;5.00;;;1.90;;
43841;SDS011;29495;49.970;20.842;2022-07-29T14:22:14;1.63;;;1.50;;
43841;SDS011;29495;49.970;20.842;2022-07-29T14:24:40;1.55;;;1.08;;
43841;SDS011;29495;49.970;20.842;2022-07-29T14:27:06;1.88;;;1.70;;
43841;SDS011;29495;49.970;20.842;2022-07-29T14:29:33;1.52;;;1.42;;
43841;SDS011;29495;49.970;20.842;2022-07-29T14:31:59;2.55;;;1.60;;
43841;SDS011;29495;49.970;20.842;2022-07-29T14:34:25;3.10;;;1.77;;
43841;SDS011;29495;49.970;20.842;2022-07-29T14:36:51;2.00;;;1.50;;
43841;SDS011;29495;49.970;20.842;2022-07-29T14:39:21;1.52;;;1.30;;
43841;SDS011;29495;49.970;20.842;2022-07-29T14:41:50;3.17;;;1.48;;
43841;SDS011;29495;49.970;20.842;2022-07-29T14:44:17;2.75;;;1.90;;
43841;SDS011;29495;49.970;20.842;2022-07-29T14:46:43;1.90;;;1.77;;
43841;SDS011;29495;49.970;20.842;2022-07-29T14:49:09;2.25;;;2.05;;
43841;SDS011;29495;49.970;20.842;2022-07-29T14:51:35;3.53;;;1.48;;
43841;SDS011;29495;49.970;20.842;2022-07-29T14:54:01;2.08;;;1.85;;
43841;SDS011;29495;49.970;20.842;2022-07-29T14:56:27;1.80;;;1.48;;
43841;SDS011;29495;49.970;20.842;2022-07-29T14:58:55;2.25;;;2.05;;
43841;SDS011;29495;49.970;20.842;2022-07-29T15:01:23;2.53;;;1.70;;
43841;SDS011;29495;49.970;20.842;2022-07-29T15:03:50;2.92;;;1.65;;
43841;SDS011;29495;49.970;20.842;2022-07-29T15:06:16;1.75;;;1.60;;
43841;SDS011;29495;49.970;20.842;2022-07-29T15:08:42;1.83;;;1.40;;
43841;SDS011;29495;49.970;20.842;2022-07-29T15:11:08;2.47;;;1.42;;
43841;SDS011;29495;49.970;20.842;2022-07-29T15:13:33;2.20;;;1.73;;
43841;SDS011;29495;49.970;20.842;2022-07-29T15:15:59;1.30;;;1.20;;
43841;SDS011;29495;49.970;20.842;2022-07-29T15:18:25;2.10;;;1.63;;
43841;SDS011;29495;49.970;20.842;2022-07-29T15:20:51;2.50;;;1.58;;
43841;SDS011;29495;49.970;20.842;2022-07-29T15:23:17;2.58;;;1.65;;
43841;SDS011;29495;49.970;20.842;2022-07-29T15:25:43;2.28;;;1.77;;
43841;SDS011;29495;49.970;20.842;2022-07-29T15:28:09;1.80;;;1.65;;
43841;SDS011;29495;49.970;20.842;2022-07-29T15:30:35;2.28;;;2.05;;
43841;SDS011;29495;49.970;20.842;2022-07-29T15:33:06;2.28;;;1.20;;
43841;SDS011;29495;49.970;20.842;2022-07-29T15:35:33;1.30;;;0.88;;
43841;SDS011;29495;49.970;20.842;2022-07-29T15:37:59;1.50;;;1.15;;
43841;SDS011;29495;49.970;20.842;2022-07-29T15:40:26;1.67;;;1.23;;
43841;SDS011;29495;49.970;20.842;2022-07-29T15:42:52;1.42;;;1.33;;
43841;SDS011;29495;49.970;20.842;2022-07-29T15:45:18;2.10;;;1.33;;
43841;SDS011;29495;49.970;20.842;2022-07-29T15:47:44;1.50;;;1.33;;
43841;SDS011;29495;49.970;20.842;2022-07-29T15:50:10;1.45;;;1.30;;
43841;SDS011;29495;49.970;20.842;2022-07-29T15:52:41;1.42;;;1.08;;
43841;SDS011;29495;49.970;20.842;2022-07-29T15:55:07;1.48;;;1.08;;
43841;SDS011;29495;49.970;20.842;2022-07-29T15:57:34;1.73;;;1.15;;
43841;SDS011;29495;49.970;20.842;2022-07-29T16:00:00;0.80;;;0.80;;
43841;SDS011;29495;49.970;20.842;2022-07-29T16:02:26;3.10;;;1.50;;
43841;SDS011;29495;49.970;20.842;2022-07-29T16:04:52;1.20;;;1.10;;
43841;SDS011;29495;49.970;20.842;2022-07-29T16:07:18;1.10;;;1.00;;
43841;SDS011;29495;49.970;20.842;2022-07-29T16:09:44;1.13;;;1.00;;
43841;SDS011;29495;49.970;20.842;2022-07-29T16:12:10;1.08;;;0.98;;
43841;SDS011;29495;49.970;20.842;2022-07-29T16:14:36;1.05;;;0.80;;
43841;SDS011;29495;49.970;20.842;2022-07-29T16:17:02;1.17;;;0.80;;
43841;SDS011;29495;49.970;20.842;2022-07-29T16:19:28;1.17;;;1.00;;
43841;SDS011;29495;49.970;20.842;2022-07-29T16:21:54;1.48;;;0.65;;
43841;SDS011;29495;49.970;20.842;2022-07-29T16:24:20;0.95;;;0.70;;
43841;SDS011;29495;49.970;20.842;2022-07-29T16:26:46;0.90;;;0.90;;
43841;SDS011;29495;49.970;20.842;2022-07-29T16:29:13;0.63;;;0.63;;
43841;SDS011;29495;49.970;20.842;2022-07-29T16:31:39;3.25;;;1.30;;
43841;SDS011;29495;49.970;20.842;2022-07-29T16:34:05;1.08;;;0.95;;
43841;SDS011;29495;49.970;20.842;2022-07-29T16:36:30;2.65;;;1.13;;
43841;SDS011;29495;49.970;20.842;2022-07-29T16:38:56;0.95;;;0.95;;
43841;SDS011;29495;49.970;20.842;2022-07-29T16:41:22;1.00;;;1.00;;
43841;SDS011;29495;49.970;20.842;2022-07-29T16:43:48;1.30;;;1.20;;
43841;SDS011;29495;49.970;20.842;2022-07-29T16:46:14;1.45;;;1.17;;
43841;SDS011;29495;49.970;20.842;2022-07-29T16:48:40;1.77;;;1.35;;
43841;SDS011;29495;49.970;20.842;2022-07-29T16:51:06;1.95;;;1.42;;
43841;SDS011;29495;49.970;20.842;2022-07-29T16:53:33;1.65;;;1.55;;
43841;SDS011;29495;49.970;20.842;2022-07-29T16:55:59;2.28;;;1.60;;
43841;SDS011;29495;49.970;20.842;2022-07-29T16:58:26;3.80;;;1.80;;
43841;SDS011;29495;49.970;20.842;2022-07-29T17:00:52;2.42;;;1.50;;
43841;SDS011;29495;49.970;20.842;2022-07-29T17:03:18;2.13;;;1.45;;
43841;SDS011;29495;49.970;20.842;2022-07-29T17:05:44;1.60;;;1.50;;
43841;SDS011;29495;49.970;20.842;2022-07-29T17:08:10;2.55;;;2.30;;
43841;SDS011;29495;49.970;20.842;2022-07-29T17:10:36;3.38;;;2.58;;
43841;SDS011;29495;49.970;20.842;2022-07-29T17:13:02;4.28;;;3.28;;
43841;SDS011;29495;49.970;20.842;2022-07-29T17:15:28;4.03;;;2.97;;
43841;SDS011;29495;49.970;20.842;2022-07-29T17:17:54;5.95;;;3.60;;
43841;SDS011;29495;49.970;20.842;2022-07-29T17:20:20;7.38;;;3.53;;
43841;SDS011;29495;49.970;20.842;2022-07-29T17:22:45;7.07;;;3.15;;
43841;SDS011;29495;49.970;20.842;2022-07-29T17:25:11;4.28;;;2.83;;
43841;SDS011;29495;49.970;20.842;2022-07-29T17:27:38;3.60;;;2.78;;
43841;SDS011;29495;49.970;20.842;2022-07-29T17:30:06;3.22;;;2.92;;
43841;SDS011;29495;49.970;20.842;2022-07-29T17:32:33;3.00;;;2.70;;
43841;SDS011;29495;49.970;20.842;2022-07-29T17:35:05;3.17;;;2.22;;
43841;SDS011;29495;49.970;20.842;2022-07-29T17:37:51;3.60;;;2.13;;
43841;SDS011;29495;49.970;20.842;2022-07-29T17:40:17;2.75;;;1.92;;
43841;SDS011;29495;49.970;20.842;2022-07-29T17:42:43;2.05;;;1.90;;
43841;SDS011;29495;49.970;20.842;2022-07-29T17:45:09;2.83;;;2.10;;
43841;SDS011;29495;49.970;20.842;2022-07-29T17:47:35;3.25;;;2.13;;
43841;SDS011;29495;49.970;20.842;2022-07-29T17:50:02;4.35;;;2.50;;
43841;SDS011;29495;49.970;20.842;2022-07-29T17:52:29;2.60;;;1.75;;
43841;SDS011;29495;49.970;20.842;2022-07-29T17:54:55;5.38;;;2.83;;
43841;SDS011;29495;49.970;20.842;2022-07-29T17:57:21;3.30;;;1.65;;
43841;SDS011;29495;49.970;20.842;2022-07-29T17:59:47;2.78;;;2.15;;
43841;SDS011;29495;49.970;20.842;2022-07-29T18:02:13;2.47;;;1.95;;
43841;SDS011;29495;49.970;20.842;2022-07-29T18:04:39;2.65;;;2.10;;
43841;SDS011;29495;49.970;20.842;2022-07-29T18:07:05;1.95;;;1.60;;
43841;SDS011;29495;49.970;20.842;2022-07-29T18:09:31;2.53;;;1.60;;
43841;SDS011;29495;49.970;20.842;2022-07-29T18:11:56;3.03;;;1.77;;
43841;SDS011;29495;49.970;20.842;2022-07-29T18:14:22;1.98;;;1.88;;
43841;SDS011;29495;49.970;20.842;2022-07-29T18:16:48;2.60;;;1.58;;
43841;SDS011;29495;49.970;20.842;2022-07-29T18:19:14;1.35;;;1.17;;